Time;durP1;ratioP1;P1;durP2;ratioP2;P2;SDS_P1;SDS_P2;PMS_P1;PMS_P2;Temp;Humidity;BMP_temperature;BMP_pressure;BME280_temperature;BME280_humidity;BME280_pressure;Samples;Min_cycle;Max_cycle;Signal;HPM_P1;HPM_P2
2022/11/13 00:01:25;;;;;;;12.30;11.00;;;14.80;78.20;;;;;;5004690;28;19951;-74
2022/11/13 00:04:28;;;;;;;12.73;11.38;;;14.90;78.90;;;;;;5007371;28;20120;-75
2022/11/13 00:07:36;;;;;;;13.25;10.10;;;14.80;78.20;;;;;;4998768;28;20564;-74
2022/11/13 00:10:39;;;;;;;14.90;11.27;;;14.80;78.30;;;;;;4990661;28;20091;-74
2022/11/13 00:13:43;;;;;;;16.80;12.23;;;14.80;78.40;;;;;;4998902;28;20108;-74
2022/11/13 00:16:47;;;;;;;12.25;11.07;;;14.80;78.40;;;;;;4997594;28;20497;-72
2022/11/13 00:19:50;;;;;;;12.73;11.10;;;14.70;78.30;;;;;;5009327;28;20045;-73
2022/11/13 00:22:53;;;;;;;15.43;12.48;;;14.80;78.50;;;;;;5003730;28;20136;-73
2022/11/13 00:26:01;;;;;;;11.95;10.75;;;14.80;78.50;;;;;;5004753;28;20104;-72
2022/11/13 00:29:05;;;;;;;17.88;12.05;;;14.70;78.40;;;;;;5005664;28;20102;-72
2022/11/13 00:32:08;;;;;;;12.18;10.18;;;14.80;78.60;;;;;;4995106;28;20279;-72
2022/11/13 00:35:11;;;;;;;13.65;11.00;;;14.80;78.60;;;;;;4987170;28;20155;-71
2022/11/13 00:38:14;;;;;;;13.68;11.02;;;14.70;78.40;;;;;;5004930;28;20404;-71
2022/11/13 00:41:18;;;;;;;13.90;11.45;;;14.70;78.40;;;;;;5002009;28;20122;-73
2022/11/13 00:44:22;;;;;;;11.95;10.32;;;14.70;78.40;;;;;;5000923;28;20045;-73
2022/11/13 00:47:25;;;;;;;13.95;11.27;;;14.70;78.50;;;;;;5003568;28;20056;-72
2022/11/13 00:50:28;;;;;;;13.65;11.05;;;14.60;78.30;;;;;;5000195;28;20405;-73
2022/11/13 00:53:31;;;;;;;12.98;11.50;;;14.60;78.40;;;;;;5003949;28;20075;-73
2022/11/13 00:56:35;;;;;;;11.32;10.23;;;14.60;78.50;;;;;;4999898;28;20068;-72
2022/11/13 00:59:38;;;;;;;;;;;14.50;78.30;;;;;;4993745;28;20192;-72
2022/11/13 01:02:42;;;;;;;13.80;11.05;;;14.50;78.30;;;;;;4992491;28;20387;-72
2022/11/13 01:05:47;;;;;;;13.02;11.43;;;14.50;78.30;;;;;;4995229;28;20112;-73
2022/11/13 01:08:54;;;;;;;14.15;11.02;;;14.40;78.20;;;;;;5003651;28;20550;-72
2022/11/13 01:11:57;;;;;;;13.05;11.75;;;14.40;78.30;;;;;;4993558;28;20452;-73
2022/11/13 01:15:01;;;;;;;11.80;10.55;;;14.40;78.30;;;;;;5003881;28;20503;-73
2022/11/13 01:18:05;;;;;;;;;;;14.30;78.20;;;;;;4993608;28;20117;-73
2022/11/13 01:21:13;;;;;;;12.20;10.90;;;14.30;78.30;;;;;;5002411;28;20040;-73
2022/11/13 01:24:16;;;;;;;13.40;11.10;;;14.30;78.20;;;;;;5003584;28;20567;-71
2022/11/13 01:27:19;;;;;;;12.18;10.95;;;14.20;78.10;;;;;;4994068;28;20564;-72
2022/11/13 01:30:22;;;;;;;12.20;11.10;;;14.20;78.20;;;;;;5004288;28;20049;-75
2022/11/13 01:33:25;;;;;;;12.30;11.00;;;14.10;78.10;;;;;;5004301;28;20089;-74
2022/11/13 01:36:29;;;;;;;15.90;12.18;;;14.10;78.20;;;;;;5008375;28;20041;-74
2022/11/13 01:39:32;;;;;;;13.33;10.23;;;14.10;78.20;;;;;;5008209;28;20444;-73
2022/11/13 01:42:35;;;;;;;12.48;11.35;;;14.10;78.20;;;;;;5005828;28;20053;-74
2022/11/13 01:45:56;;;;;;;12.75;10.38;;;14.00;78.10;;;;;;4998012;28;20135;-74
2022/11/13 01:49:16;;;;;;;12.93;10.98;;;14.00;78.20;;;;;;5008453;28;20049;-73
2022/11/13 01:52:37;;;;;;;12.60;11.15;;;14.00;78.20;;;;;;5008237;28;20046;-73
2022/11/13 01:55:40;;;;;;;13.00;11.35;;;14.00;78.20;;;;;;4999510;28;20587;-74
2022/11/13 01:58:51;;;;;;;15.88;11.95;;;13.90;78.00;;;;;;5006167;28;20041;-75
2022/11/13 02:01:55;;;;;;;13.02;11.00;;;13.90;78.00;;;;;;5019291;28;20036;-72
2022/11/13 02:04:58;;;;;;;13.25;11.88;;;13.90;78.10;;;;;;5012280;28;20056;-72
2022/11/13 02:08:02;;;;;;;12.55;10.70;;;13.90;78.20;;;;;;5004887;28;20053;-72
2022/11/13 02:11:05;;;;;;;;;;;13.90;78.20;;;;;;5008312;28;20810;-72
2022/11/13 02:14:10;;;;;;;15.50;10.68;;;13.80;78.00;;;;;;5006391;28;19920;-72
2022/11/13 02:17:20;;;;;;;13.20;11.30;;;13.80;78.00;;;;;;4999263;28;20060;-72
2022/11/13 02:20:29;;;;;;;11.95;10.80;;;13.80;78.10;;;;;;4990466;28;20559;-72
2022/11/13 02:24:04;;;;;;;13.98;12.25;;;13.70;78.00;;;;;;4998308;28;20531;-72
2022/11/13 02:27:14;;;;;;;13.32;11.20;;;13.70;78.10;;;;;;4991857;28;20091;-73
2022/11/13 02:30:20;;;;;;;12.27;11.05;;;13.70;78.10;;;;;;5006423;28;20044;-71
2022/11/13 02:33:29;;;;;;;14.00;10.57;;;13.70;78.20;;;;;;4999188;28;20112;-72
2022/11/13 02:36:34;;;;;;;13.90;11.30;;;13.70;78.30;;;;;;5006141;28;20536;-73
2022/11/13 02:39:37;;;;;;;12.23;11.05;;;13.60;78.10;;;;;;5001174;28;20036;-71
2022/11/13 02:42:41;;;;;;;13.98;10.82;;;13.70;78.30;;;;;;5006587;28;20041;-72
2022/11/13 02:45:44;;;;;;;13.43;10.63;;;13.70;78.30;;;;;;5018883;22;20061;-78
2022/11/13 02:48:47;;;;;;;13.30;10.77;;;13.70;78.30;;;;;;4996841;28;20084;-79
2022/11/13 02:51:50;;;;;;;13.05;10.38;;;13.70;78.40;;;;;;5009748;28;20049;-79
2022/11/13 02:54:53;;;;;;;11.60;10.27;;;13.70;78.40;;;;;;5029009;28;20103;-79
2022/11/13 02:57:56;;;;;;;13.32;11.05;;;13.70;78.40;;;;;;4997292;28;20045;-79
2022/11/13 03:01:03;;;;;;;12.70;11.40;;;13.70;78.40;;;;;;5009978;28;20045;-79
2022/11/13 03:04:06;;;;;;;13.15;11.82;;;13.70;78.40;;;;;;5021434;28;20379;-78
2022/11/13 03:07:10;;;;;;;14.93;11.50;;;13.80;78.60;;;;;;5031506;28;20052;-79
2022/11/13 03:10:13;;;;;;;13.35;11.32;;;13.80;78.70;;;;;;5031204;28;20060;-78
2022/11/13 03:13:16;;;;;;;13.18;10.93;;;13.80;78.70;;;;;;5029761;28;20140;-80
2022/11/13 03:16:20;;;;;;;13.32;11.48;;;13.80;78.70;;;;;;5019247;28;20083;-79
2022/11/13 03:19:23;;;;;;;11.95;10.75;;;13.70;78.60;;;;;;5010939;28;20064;-79
2022/11/13 03:22:27;;;;;;;14.50;11.68;;;13.80;78.70;;;;;;5023805;28;20176;-79
2022/11/13 03:25:30;;;;;;;15.82;11.35;;;13.80;78.70;;;;;;5032391;28;20060;-79
2022/11/13 03:28:34;;;;;;;12.82;11.60;;;13.80;78.70;;;;;;5030303;28;20199;-78
2022/11/13 03:31:37;;;;;;;16.10;11.63;;;13.80;78.70;;;;;;5017217;28;20185;-80
2022/11/13 03:34:41;;;;;;;13.00;11.65;;;13.80;78.70;;;;;;5028387;28;20396;-78
2022/11/13 03:37:44;;;;;;;13.52;11.10;;;13.80;78.80;;;;;;5029460;28;20091;-78
2022/11/13 03:40:47;;;;;;;12.13;10.98;;;13.80;78.80;;;;;;5028951;28;20115;-79
2022/11/13 03:43:51;;;;;;;14.20;11.32;;;13.80;78.80;;;;;;5029468;28;20442;-79
2022/11/13 03:46:54;;;;;;;;;;;13.80;78.80;;;;;;4990451;28;20077;-78
2022/11/13 03:49:58;;;;;;;13.13;10.65;;;13.90;79.00;;;;;;4989797;28;20011;-79
2022/11/13 03:53:01;;;;;;;14.27;12.40;;;13.80;78.80;;;;;;5008901;28;20055;-79
2022/11/13 03:56:05;;;;;;;14.85;10.75;;;13.90;78.90;;;;;;4989862;28;20053;-78
2022/11/13 03:59:08;;;;;;;11.40;10.27;;;13.80;78.80;;;;;;4996327;28;20400;-79
2022/11/13 04:02:12;;;;;;;15.63;11.23;;;13.80;78.80;;;;;;5010905;28;20040;-79
2022/11/13 04:05:15;;;;;;;12.35;10.07;;;13.80;78.80;;;;;;5012380;28;20133;-78
2022/11/13 04:08:18;;;;;;;12.57;11.30;;;13.90;79.10;;;;;;4998914;28;20177;-79
2022/11/13 04:11:22;;;;;;;12.30;11.05;;;13.90;79.10;;;;;;5011466;28;20389;-79
2022/11/13 04:14:25;;;;;;;14.35;11.30;;;13.80;78.90;;;;;;5009619;28;20114;-78
2022/11/13 04:17:27;;;;;;;12.10;10.00;;;13.90;79.10;;;;;;4998918;28;20033;-78
2022/11/13 04:20:31;;;;;;;12.75;10.02;;;13.90;79.20;;;;;;5011588;28;20259;-78
2022/11/13 04:23:34;;;;;;;14.32;11.40;;;13.90;79.20;;;;;;5011886;28;20133;-78
2022/11/13 04:26:36;;;;;;;12.00;10.20;;;13.80;79.10;;;;;;5022055;28;20045;-78
2022/11/13 04:29:40;;;;;;;12.75;10.98;;;13.80;79.10;;;;;;5012655;28;20145;-78
2022/11/13 04:32:43;;;;;;;;;;;13.80;79.10;;;;;;5012987;28;20049;-78
2022/11/13 04:35:47;;;;;;;14.57;11.45;;;13.80;79.10;;;;;;5009155;28;19932;-78
2022/11/13 04:38:50;;;;;;;;;;;13.80;79.10;;;;;;5001216;28;20048;-78
2022/11/13 04:45:18;;;;;;;12.10;10.13;;;13.80;79.00;;;;;;5012886;28;20615;-80
2022/11/13 04:48:22;;;;;;;13.02;10.50;;;13.80;79.00;;;;;;5027871;28;20121;-78
2022/11/13 04:51:24;;;;;;;12.33;9.50;;;13.80;79.00;;;;;;5027832;28;20552;-78
2022/11/13 04:54:27;;;;;;;11.63;10.18;;;13.90;79.20;;;;;;5009856;28;20266;-79
2022/11/13 04:57:31;;;;;;;12.73;11.13;;;13.90;79.30;;;;;;5010335;28;20041;-79
2022/11/13 05:00:34;;;;;;;11.45;9.65;;;13.90;79.30;;;;;;4991293;28;20092;-79
2022/11/13 05:03:37;;;;;;;10.77;9.68;;;13.90;79.30;;;;;;5000220;28;20064;-78
2022/11/13 05:06:40;;;;;;;13.45;9.65;;;13.90;79.30;;;;;;5008872;28;20040;-78
2022/11/13 05:09:44;;;;;;;12.07;9.73;;;13.90;79.30;;;;;;4987572;28;20485;-78
2022/11/13 05:12:47;;;;;;;12.35;11.15;;;13.90;79.30;;;;;;4992524;28;20060;-79
2022/11/13 05:15:51;;;;;;;14.20;12.77;;;13.80;79.20;;;;;;5020273;28;20056;-78
2022/11/13 05:18:54;;;;;;;;;;;13.80;79.20;;;;;;5027424;28;20266;-79
2022/11/13 05:21:57;;;;;;;12.32;10.95;;;13.80;79.20;;;;;;5009688;28;19936;-79
2022/11/13 05:25:00;;;;;;;10.95;9.70;;;13.80;79.20;;;;;;5026541;28;20065;-79
2022/11/13 05:28:03;;;;;;;13.80;10.88;;;13.70;79.10;;;;;;5026613;28;20080;-79
2022/11/13 05:31:10;;;;;;;12.23;10.93;;;13.80;79.30;;;;;;5007191;28;20048;-80
2022/11/13 05:34:14;;;;;;;12.40;10.93;;;13.70;79.20;;;;;;5017674;28;20083;-79
2022/11/13 05:37:17;;;;;;;13.23;11.88;;;13.70;79.20;;;;;;5026473;28;20136;-79
2022/11/13 05:40:21;;;;;;;12.23;11.10;;;13.70;79.30;;;;;;5005720;28;20049;-79
2022/11/13 05:43:24;;;;;;;13.30;11.43;;;13.70;79.40;;;;;;5007013;28;20049;-78
2022/11/13 05:46:28;;;;;;;10.85;9.85;;;13.70;79.40;;;;;;5006112;28;20115;-78
2022/11/13 05:49:32;;;;;;;12.23;10.57;;;13.70;79.40;;;;;;5003640;28;20044;-81
2022/11/13 05:52:35;;;;;;;12.32;11.13;;;13.70;79.50;;;;;;5003047;28;20048;-78
2022/11/13 05:55:38;;;;;;;12.50;11.30;;;13.70;79.50;;;;;;5004246;28;20145;-83
2022/11/13 05:58:42;;;;;;;13.38;10.68;;;13.70;79.50;;;;;;4991850;28;20496;-82
2022/11/13 06:01:46;;;;;;;13.75;11.02;;;13.60;79.40;;;;;;5000669;28;20068;-85
2022/11/13 06:04:50;;;;;;;13.68;11.77;;;13.60;79.40;;;;;;5005385;28;20100;-81
2022/11/13 06:07:53;;;;;;;13.30;11.93;;;13.60;79.50;;;;;;5011117;28;20348;-79
2022/11/13 06:11:05;;;;;;;12.60;11.40;;;13.60;79.50;;;;;;5006310;28;20165;-81
2022/11/13 06:14:09;;;;;;;11.73;10.52;;;13.60;79.60;;;;;;5002428;28;20532;-78
2022/11/13 06:17:12;;;;;;;14.40;11.18;;;13.60;79.60;;;;;;4995175;28;20076;-77
2022/11/13 06:20:15;;;;;;;12.68;11.45;;;13.50;79.50;;;;;;4993891;28;20142;-78
2022/11/13 06:23:18;;;;;;;13.80;12.35;;;13.60;79.60;;;;;;5021010;28;20352;-78
2022/11/13 06:26:23;;;;;;;14.15;11.45;;;13.50;79.50;;;;;;5022364;28;20100;-78
2022/11/13 06:29:27;;;;;;;13.32;11.95;;;13.50;79.50;;;;;;5022990;28;20467;-78
2022/11/13 06:32:30;;;;;;;;;;;13.50;79.50;;;;;;5020094;28;20203;-77
2022/11/13 06:35:34;;;;;;;13.95;11.57;;;13.50;79.50;;;;;;5018404;28;19927;-78
2022/11/13 06:38:38;;;;;;;13.48;12.05;;;13.50;79.50;;;;;;5011105;28;20086;-77
2022/11/13 06:41:41;;;;;;;13.38;12.02;;;13.40;79.40;;;;;;5029562;28;20044;-77
2022/11/13 06:44:45;;;;;;;13.70;12.25;;;13.40;79.50;;;;;;5021586;28;20107;-79
2022/11/13 06:47:48;;;;;;;12.95;11.75;;;13.40;79.50;;;;;;4996660;28;20195;-79
2022/11/13 06:50:51;;;;;;;14.60;13.13;;;13.40;79.50;;;;;;5005573;28;20044;-79
2022/11/13 06:53:55;;;;;;;13.80;12.35;;;13.50;80.00;;;;;;5006920;28;20504;-79
2022/11/13 06:56:58;;;;;;;14.05;12.55;;;13.40;79.60;;;;;;4988056;28;20428;-80
2022/11/13 07:00:03;;;;;;;13.90;12.50;;;13.40;79.60;;;;;;5005792;28;20049;-78
2022/11/13 07:03:16;;;;;;;14.10;12.38;;;13.40;79.60;;;;;;5009755;28;20053;-79
2022/11/13 07:06:22;;;;;;;14.73;12.45;;;13.40;79.70;;;;;;5002184;28;20085;-79
2022/11/13 07:09:25;;;;;;;14.73;13.23;;;13.40;79.70;;;;;;5016749;28;20216;-83
2022/11/13 07:12:28;;;;;;;15.80;12.93;;;13.50;79.90;;;;;;5013006;28;20124;-82
2022/11/13 07:15:33;;;;;;;15.38;13.77;;;13.50;79.90;;;;;;5011392;28;20458;-82
2022/11/13 07:18:37;;;;;;;16.13;14.18;;;13.40;79.70;;;;;;5007503;28;20044;-81
2022/11/13 07:21:40;;;;;;;16.65;14.95;;;13.50;79.90;;;;;;5014305;28;20041;-83
2022/11/13 07:24:43;;;;;;;15.52;13.93;;;13.50;79.90;;;;;;5014753;28;20049;-83
2022/11/13 07:27:46;;;;;;;16.73;14.82;;;13.50;79.90;;;;;;5016548;28;20108;-82
2022/11/13 07:30:49;;;;;;;15.90;14.20;;;13.50;79.90;;;;;;5008344;28;20045;-85
2022/11/13 07:33:52;;;;;;;14.88;13.43;;;13.50;79.80;;;;;;5007574;28;20044;-80
2022/11/13 07:36:56;;;;;;;16.67;15.07;;;13.60;80.00;;;;;;5010500;28;20147;-82
2022/11/13 07:40:00;;;;;;;19.75;14.90;;;13.60;80.00;;;;;;4994625;28;20087;-81
2022/11/13 07:43:03;;;;;;;16.58;14.18;;;13.60;79.90;;;;;;5015717;28;20041;-81
2022/11/13 07:46:06;;;;;;;16.88;15.25;;;13.60;79.90;;;;;;5020173;28;20060;-86
2022/11/13 07:49:09;;;;;;;16.13;14.45;;;13.70;80.00;;;;;;5014878;28;20044;-87
2022/11/13 07:52:12;;;;;;;17.25;14.82;;;13.70;79.90;;;;;;4977829;28;20118;-85
2022/11/13 07:55:15;;;;;;;17.48;14.80;;;13.80;80.10;;;;;;5013763;28;20423;-88
2022/11/13 07:58:18;;;;;;;16.88;15.07;;;13.90;80.30;;;;;;5008414;28;20041;-88
2022/11/13 08:01:22;;;;;;;;;;;14.00;80.70;;;;;;5008942;28;20121;-87
2022/11/13 08:04:25;;;;;;;16.75;14.88;;;14.10;80.80;;;;;;5009033;28;19926;-80
2022/11/13 08:07:28;;;;;;;19.30;15.82;;;14.20;80.60;;;;;;4996417;28;20052;-78
2022/11/13 08:10:32;;;;;;;18.65;16.30;;;14.20;80.70;;;;;;5014689;28;20448;-79
2022/11/13 08:13:35;;;;;;;;;;;14.30;81.00;;;;;;5011143;28;20461;-81
2022/11/13 08:16:39;;;;;;;17.17;15.40;;;14.30;80.90;;;;;;5007596;28;20339;-84
2022/11/13 08:19:43;;;;;;;18.25;16.25;;;14.40;80.90;;;;;;5017239;28;20041;-80
2022/11/13 08:22:46;;;;;;;19.40;15.60;;;14.50;81.10;;;;;;5001721;28;20038;-80
2022/11/13 08:25:49;;;;;;;32.80;17.30;;;14.50;81.20;;;;;;5004809;28;20056;-80
2022/11/13 08:28:52;;;;;;;19.33;15.50;;;14.60;81.40;;;;;;5004602;28;20064;-80
2022/11/13 08:31:55;;;;;;;18.30;15.47;;;14.70;81.60;;;;;;5005582;28;20073;-80
2022/11/13 08:34:58;;;;;;;16.52;14.82;;;14.70;81.60;;;;;;4992219;28;20251;-81
2022/11/13 08:38:06;;;;;;;;;;;14.80;81.80;;;;;;5003637;28;20088;-78
2022/11/13 08:41:09;;;;;;;18.33;15.73;;;14.90;81.90;;;;;;5003371;28;19919;-80
2022/11/13 08:44:13;;;;;;;;;;;14.90;81.70;;;;;;4999789;28;20057;-80
2022/11/13 08:47:16;;;;;;;16.90;15.18;;;14.90;81.70;;;;;;5014545;28;19971;-80
2022/11/13 08:50:19;;;;;;;19.40;16.75;;;15.00;81.70;;;;;;5004397;28;20099;-81
2022/11/13 08:53:24;;;;;;;18.20;16.33;;;15.00;81.70;;;;;;4994740;28;20591;-82
2022/11/13 08:56:27;;;;;;;20.23;16.00;;;15.10;82.00;;;;;;4993663;28;20121;-79
2022/11/13 08:59:30;;;;;;;22.73;17.92;;;15.20;82.10;;;;;;5001436;28;20100;-80
2022/11/13 09:02:33;;;;;;;33.67;21.77;;;15.20;82.00;;;;;;5003620;28;20173;-80
2022/11/13 09:05:36;;;;;;;35.33;22.95;;;15.20;81.90;;;;;;5002460;28;20073;-81
2022/11/13 09:08:39;;;;;;;35.38;25.58;;;15.30;82.10;;;;;;5003091;28;20053;-81
2022/11/13 09:11:42;;;;;;;48.28;28.02;;;15.30;82.10;;;;;;5011878;28;20053;-88
2022/11/13 09:14:46;;;;;;;46.70;31.63;;;15.30;82.10;;;;;;5011116;28;20069;-86
2022/11/13 09:17:49;;;;;;;43.05;30.25;;;15.30;82.10;;;;;;5016233;28;20052;-90
2022/11/13 09:20:53;;;;;;;39.92;27.90;;;15.30;82.20;;;;;;5003765;28;20041;-87
2022/11/13 09:23:57;;;;;;;34.15;25.58;;;15.30;82.30;;;;;;5012344;28;20068;-85
2022/11/13 09:27:00;;;;;;;32.45;23.98;;;15.30;82.40;;;;;;5024034;28;20461;-85
2022/11/13 09:30:04;;;;;;;33.95;24.67;;;15.40;82.70;;;;;;5012716;28;20040;-79
2022/11/13 09:33:08;;;;;;;;;;;15.40;82.70;;;;;;5004747;28;20084;-79
2022/11/13 09:36:13;;;;;;;;;;;15.40;82.70;;;;;;5004700;28;19921;-78
2022/11/13 09:39:16;;;;;;;27.02;21.13;;;15.40;82.50;;;;;;5003341;28;20368;-79
2022/11/13 09:42:23;;;;;;;29.80;20.90;;;15.50;82.50;;;;;;4997654;28;20100;-82
2022/11/13 09:45:28;;;;;;;30.00;22.63;;;15.50;82.70;;;;;;5013051;28;20399;-79
2022/11/13 09:48:42;;;;;;;25.08;21.27;;;15.50;82.80;;;;;;4994823;28;20053;-77
2022/11/13 09:51:52;;;;;;;27.88;20.58;;;15.50;82.90;;;;;;4999148;28;20080;-84
2022/11/13 09:54:57;;;;;;;35.17;21.80;;;15.50;82.90;;;;;;4996931;28;20549;-86
2022/11/13 09:58:30;;;;;;;32.47;22.83;;;15.50;82.90;;;;;;4998972;28;20044;-88
2022/11/13 10:01:46;;;;;;;34.72;22.73;;;15.60;83.30;;;;;;4999400;28;20156;-86
2022/11/13 10:05:11;;;;;;;30.33;22.05;;;15.70;83.40;;;;;;5003635;28;20049;-85
2022/11/13 10:08:35;;;;;;;33.85;22.75;;;15.70;83.50;;;;;;5001095;28;20069;-87
2022/11/13 10:11:44;;;;;;;29.85;22.13;;;15.80;83.70;;;;;;5009571;28;20044;-84
2022/11/13 10:14:52;;;;;;;26.63;20.83;;;15.90;83.70;;;;;;5009420;28;20118;-86
2022/11/13 10:18:05;;;;;;;23.48;19.38;;;15.90;83.60;;;;;;5004776;28;20057;-90
2022/11/13 10:21:09;;;;;;;23.73;19.50;;;16.00;83.80;;;;;;5009856;28;20034;-85
2022/11/13 10:24:24;;;;;;;29.52;23.20;;;16.00;83.70;;;;;;5003387;28;20088;-85
2022/11/13 10:27:27;;;;;;;23.15;18.85;;;16.10;83.80;;;;;;5002535;28;20497;-85
2022/11/13 10:30:30;;;;;;;23.25;19.75;;;16.20;83.90;;;;;;5012685;28;20120;-84
2022/11/13 10:33:33;;;;;;;21.38;18.48;;;16.20;83.80;;;;;;5014036;28;20077;-86
2022/11/13 10:37:02;;;;;;;24.25;19.10;;;16.30;83.90;;;;;;4988547;28;20729;-87
2022/11/13 10:40:06;;;;;;;22.00;17.75;;;16.40;84.00;;;;;;5010071;28;20061;-85
2022/11/13 10:43:24;;;;;;;20.45;17.05;;;16.50;83.90;;;;;;4996064;28;20045;-87
2022/11/13 10:46:29;;;;;;;19.88;17.20;;;16.50;83.80;;;;;;5015197;28;20130;-88
2022/11/13 10:49:32;;;;;;;24.20;17.90;;;16.70;84.00;;;;;;5005518;28;20041;-87
2022/11/13 10:52:44;;;;;;;21.58;18.50;;;16.70;83.90;;;;;;4995166;28;20157;-84
2022/11/13 10:55:53;;;;;;;21.23;17.52;;;16.70;84.30;;;;;;5006717;28;20583;-89
2022/11/13 10:59:11;;;;;;;19.75;17.15;;;16.70;83.70;;;;;;5006863;28;20088;-89
2022/11/13 11:02:15;;;;;;;21.45;16.05;;;16.80;83.80;;;;;;5007207;28;20068;-90
2022/11/13 11:05:22;;;;;;;20.38;16.65;;;16.80;83.70;;;;;;5004040;28;20100;-84
2022/11/13 11:08:29;;;;;;;18.98;16.95;;;16.80;83.60;;;;;;5008371;28;20041;-91
2022/11/13 11:14:58;;;;;;;16.02;14.00;;;16.90;83.60;;;;;;5009363;28;20101;-89
2022/11/13 11:18:13;;;;;;;16.52;14.82;;;16.90;83.50;;;;;;5007253;28;20049;-90
2022/11/13 11:21:24;;;;;;;16.58;14.80;;;17.00;83.60;;;;;;5005979;28;20091;-93
2022/11/13 11:24:38;;;;;;;18.52;15.35;;;17.00;83.40;;;;;;5005941;28;20137;-90
2022/11/13 11:28:02;;;;;;;16.08;14.38;;;17.00;83.30;;;;;;5004480;28;20037;-86
2022/11/13 11:31:25;;;;;;;18.35;16.45;;;17.10;83.40;;;;;;5005188;28;20691;-84
2022/11/13 11:34:49;;;;;;;23.88;18.23;;;17.10;83.20;;;;;;5004451;28;20345;-86
2022/11/13 11:38:17;;;;;;;23.50;17.40;;;17.20;83.30;;;;;;5004381;28;20036;-90
2022/11/13 11:41:25;;;;;;;20.17;18.08;;;17.20;83.10;;;;;;5006663;28;20044;-89
2022/11/13 11:44:55;;;;;;;17.80;15.95;;;17.20;83.50;;;;;;5009290;28;20125;-85
2022/11/13 11:48:00;;;;;;;18.02;16.13;;;17.30;83.10;;;;;;4989633;28;20408;-87
2022/11/13 11:51:19;;;;;;;18.10;16.30;;;17.30;83.00;;;;;;4979993;28;20095;-85
2022/11/13 11:54:38;;;;;;;17.42;15.55;;;17.30;82.90;;;;;;5003862;28;20061;-88
2022/11/13 11:57:57;;;;;;;18.17;14.75;;;17.40;83.00;;;;;;5002449;28;20129;-83
2022/11/13 12:01:09;;;;;;;13.82;12.45;;;17.50;83.00;;;;;;5000610;28;20611;-82
2022/11/13 12:04:21;;;;;;;14.52;12.63;;;17.50;82.90;;;;;;5006136;28;20049;-79
2022/11/13 12:07:55;;;;;;;15.60;12.95;;;17.50;82.70;;;;;;5007670;28;20042;-87
2022/11/13 12:11:18;;;;;;;17.60;13.43;;;17.60;82.90;;;;;;4992286;28;20092;-85
2022/11/13 12:14:25;;;;;;;13.90;12.43;;;17.70;82.90;;;;;;4999913;28;20131;-91
2022/11/13 12:17:57;;;;;;;15.63;14.15;;;17.80;82.90;;;;;;5002077;28;20587;-82
2022/11/13 12:21:06;;;;;;;15.10;13.60;;;17.80;82.80;;;;;;4984056;28;20057;-87
2022/11/13 12:24:31;;;;;;;17.15;13.93;;;17.90;82.80;;;;;;5002787;28;20112;-92
2022/11/13 12:27:52;;;;;;;15.93;14.23;;;17.90;82.50;;;;;;4998288;28;20169;-82
2022/11/13 12:31:14;;;;;;;15.82;14.13;;;17.90;82.20;;;;;;4992931;28;20475;-84
2022/11/13 12:34:40;;;;;;;17.88;15.85;;;18.00;82.30;;;;;;4998299;28;20156;-84
2022/11/13 12:37:51;;;;;;;15.65;14.07;;;18.10;82.60;;;;;;4999404;28;20165;-83
2022/11/13 12:41:16;;;;;;;15.05;13.45;;;18.20;82.70;;;;;;4999976;28;20277;-88
2022/11/13 12:44:28;;;;;;;18.70;14.45;;;18.30;82.70;;;;;;5027328;28;20057;-94
2022/11/13 12:47:34;;;;;;;35.97;19.45;;;18.40;82.50;;;;;;5022132;28;20104;-93
2022/11/13 12:50:38;;;;;;;24.27;15.80;;;18.50;82.60;;;;;;5001982;28;20072;-93
2022/11/13 12:54:08;;;;;;;20.83;14.35;;;18.60;82.90;;;;;;5004357;28;20045;-89
2022/11/13 12:57:12;;;;;;;16.05;13.02;;;18.60;83.00;;;;;;5008996;28;20495;-95
2022/11/13 13:00:26;;;;;;;17.65;13.02;;;18.70;83.10;;;;;;4997286;28;21175;-92
2022/11/13 13:03:38;;;;;;;17.35;12.93;;;18.70;83.20;;;;;;4996397;28;20794;-91
2022/11/13 13:07:40;;;;;;;13.20;11.05;;;18.70;83.10;;;;;;5006025;28;20515;-94
2022/11/13 13:10:49;;;;;;;12.93;10.85;;;18.80;83.20;;;;;;4913291;29;20072;-93
2022/11/13 13:14:05;;;;;;;13.73;10.95;;;18.70;82.90;;;;;;4913427;28;20597;-92
2022/11/13 13:17:16;;;;;;;12.77;10.68;;;18.80;83.00;;;;;;4999186;28;20060;-89
2022/11/13 13:20:20;;;;;;;13.40;11.00;;;18.80;82.90;;;;;;5011649;28;20523;-94
2022/11/13 13:23:32;;;;;;;30.85;10.70;;;18.80;82.90;;;;;;5012713;28;20090;-94
2022/11/13 13:26:45;;;;;;;15.38;10.07;;;18.80;82.90;;;;;;5005948;28;20056;-82
2022/11/13 13:29:48;;;;;;;11.63;9.30;;;18.90;83.00;;;;;;4996618;28;20045;-89
2022/11/13 13:33:00;;;;;;;11.63;9.80;;;18.90;82.80;;;;;;5006583;28;20048;-84
2022/11/13 13:36:10;;;;;;;13.32;8.93;;;18.90;82.70;;;;;;5005126;28;20046;-86
2022/11/13 13:40:00;;;;;;;12.68;9.20;;;18.90;82.60;;;;;;5007944;28;20092;-85
2022/11/13 13:43:15;;;;;;;11.77;8.73;;;18.90;82.60;;;;;;4988552;28;20048;-85
2022/11/13 13:46:23;;;;;;;10.88;9.77;;;18.90;82.60;;;;;;5016682;28;20065;-84
2022/11/13 13:49:27;;;;;;;10.18;8.80;;;18.90;82.50;;;;;;5003917;28;20045;-85
2022/11/13 13:52:33;;;;;;;10.88;8.52;;;18.90;82.40;;;;;;5006727;28;20437;-84
2022/11/13 13:55:44;;;;;;;9.63;8.10;;;18.90;82.40;;;;;;5008634;28;20053;-86
2022/11/13 13:58:48;;;;;;;10.52;8.07;;;18.90;82.30;;;;;;5008574;28;20505;-84
2022/11/13 14:01:57;;;;;;;10.43;8.25;;;18.90;82.20;;;;;;5009132;28;20126;-89
2022/11/13 14:05:01;;;;;;;9.15;7.82;;;18.90;82.10;;;;;;5008280;28;20045;-93
2022/11/13 14:08:19;;;;;;;8.95;7.60;;;18.90;82.00;;;;;;5003821;28;20041;-88
2022/11/13 14:11:25;;;;;;;8.93;7.72;;;18.90;81.90;;;;;;5002284;28;20111;-87
2022/11/13 14:14:29;;;;;;;9.35;8.13;;;18.90;81.80;;;;;;5009089;28;20202;-88
2022/11/13 14:17:34;;;;;;;8.82;7.35;;;18.90;81.90;;;;;;4997959;28;20045;-87
2022/11/13 14:20:56;;;;;;;8.40;7.47;;;18.90;81.90;;;;;;5005730;28;20068;-89
2022/11/13 14:24:01;;;;;;;8.80;7.65;;;18.90;81.80;;;;;;5009002;28;20064;-86
2022/11/13 14:27:07;;;;;;;8.82;7.95;;;18.80;81.60;;;;;;5023103;28;20550;-88
2022/11/13 14:30:40;;;;;;;8.65;6.80;;;18.90;81.80;;;;;;5011765;28;20056;-94
2022/11/13 14:33:47;;;;;;;10.93;7.68;;;18.80;81.50;;;;;;5013451;28;20149;-93
2022/11/13 14:36:51;;;;;;;8.63;6.80;;;18.80;82.00;;;;;;5011597;28;20084;-89
2022/11/13 14:39:58;;;;;;;8.27;7.25;;;18.80;81.50;;;;;;4995968;28;20044;-91
2022/11/13 14:43:06;;;;;;;8.10;6.55;;;18.80;81.40;;;;;;5004876;28;20045;-93
2022/11/13 14:46:35;;;;;;;8.60;7.13;;;18.80;81.30;;;;;;5006551;28;20622;-92
2022/11/13 14:49:38;;;;;;;11.25;7.32;;;18.80;81.40;;;;;;4995290;28;20161;-92
2022/11/13 14:52:41;;;;;;;7.60;6.95;;;18.80;81.40;;;;;;5011603;28;20053;-92
2022/11/13 14:55:53;;;;;;;9.07;8.00;;;18.70;81.10;;;;;;5008900;28;20056;-87
2022/11/13 14:59:10;;;;;;;7.72;6.70;;;18.70;81.10;;;;;;5004871;28;20180;-90
2022/11/13 15:02:13;;;;;;;6.82;6.25;;;18.70;81.10;;;;;;4991701;28;20064;-83
2022/11/13 15:05:16;;;;;;;10.07;6.70;;;18.60;80.80;;;;;;5008658;28;20099;-89
2022/11/13 15:08:20;;;;;;;8.57;6.97;;;18.60;80.70;;;;;;4997246;28;20049;-82
2022/11/13 15:11:25;;;;;;;14.18;8.13;;;18.50;80.50;;;;;;4993918;28;20045;-79
2022/11/13 15:14:28;;;;;;;11.38;7.32;;;18.40;80.50;;;;;;5002473;28;20088;-82
2022/11/13 15:17:31;;;;;;;10.85;7.70;;;18.40;80.70;;;;;;5003917;28;20060;-83
2022/11/13 15:20:34;;;;;;;7.22;6.43;;;18.30;80.60;;;;;;5001289;28;20044;-84
2022/11/13 15:23:41;;;;;;;10.60;6.97;;;18.20;80.50;;;;;;4997187;28;20060;-93
2022/11/13 15:26:44;;;;;;;10.00;7.65;;;18.20;80.80;;;;;;4992137;28;20068;-95
2022/11/13 15:29:48;;;;;;;8.95;6.78;;;18.20;80.90;;;;;;4993043;28;20065;-92
2022/11/13 15:32:56;;;;;;;8.50;6.95;;;18.10;80.90;;;;;;5009230;28;20081;-94
2022/11/13 15:36:00;;;;;;;9.55;6.03;;;18.10;81.00;;;;;;5006177;28;20037;-96
2022/11/13 15:39:05;;;;;;;8.50;7.22;;;18.00;80.80;;;;;;5011240;28;20036;-94
2022/11/13 15:42:15;;;;;;;8.98;6.32;;;18.00;80.90;;;;;;5014304;28;20044;-94
2022/11/13 15:45:18;;;;;;;10.55;7.55;;;17.90;80.90;;;;;;5009482;28;20148;-95
2022/11/13 15:48:22;;;;;;;7.78;6.95;;;17.90;81.00;;;;;;4991640;28;20130;-87
2022/11/13 15:51:39;;;;;;;8.20;7.32;;;17.90;81.10;;;;;;5004651;28;20410;-87
2022/11/13 15:54:43;;;;;;;8.10;6.35;;;17.80;81.10;;;;;;4991436;28;20045;-90
2022/11/13 15:57:47;;;;;;;8.60;7.03;;;17.80;81.20;;;;;;5000643;28;20041;-89
2022/11/13 16:00:50;;;;;;;8.75;6.30;;;17.80;81.30;;;;;;5001394;28;20171;-88
2022/11/13 16:03:55;;;;;;;9.07;7.00;;;17.70;81.20;;;;;;5010775;28;20176;-86